sensor_id;sensor_type;location;lat;lon;timestamp;pressure;altitude;pressure_sealevel;temperature;humidity
33781;BME280;20097;50.832;19.100;2023-04-02T00:04:43;97276.00;;;7.05;100.00
33781;BME280;20097;50.832;19.100;2023-04-02T00:09:47;97284.41;;;7.07;100.00
33781;BME280;20097;50.832;19.100;2023-04-02T00:14:53;97284.22;;;6.93;100.00
33781;BME280;20097;50.832;19.100;2023-04-02T00:20:04;97293.59;;;6.94;100.00
33781;BME280;20097;50.832;19.100;2023-04-02T00:25:11;97293.69;;;7.01;100.00
33781;BME280;20097;50.832;19.100;2023-04-02T00:30:16;97300.69;;;7.01;100.00
33781;BME280;20097;50.832;19.100;2023-04-02T00:35:24;97296.72;;;6.90;100.00
33781;BME280;20097;50.832;19.100;2023-04-02T00:40:29;97295.84;;;6.97;100.00
33781;BME280;20097;50.832;19.100;2023-04-02T00:45:35;97296.25;;;6.86;100.00
33781;BME280;20097;50.832;19.100;2023-04-02T00:50:41;97286.63;;;6.95;100.00
33781;BME280;20097;50.832;19.100;2023-04-02T00:55:47;97304.72;;;7.03;100.00
33781;BME280;20097;50.832;19.100;2023-04-02T01:00:51;97303.34;;;6.92;100.00
33781;BME280;20097;50.832;19.100;2023-04-02T01:05:59;97308.88;;;6.89;100.00
33781;BME280;20097;50.832;19.100;2023-04-02T01:11:08;97311.19;;;6.84;100.00
33781;BME280;20097;50.832;19.100;2023-04-02T01:16:21;97313.34;;;6.81;100.00
33781;BME280;20097;50.832;19.100;2023-04-02T01:21:36;97315.28;;;6.79;100.00
33781;BME280;20097;50.832;19.100;2023-04-02T01:26:51;97309.88;;;6.66;100.00
33781;BME280;20097;50.832;19.100;2023-04-02T01:31:59;97304.50;;;6.67;100.00
33781;BME280;20097;50.832;19.100;2023-04-02T01:37:15;97321.22;;;6.65;100.00
33781;BME280;20097;50.832;19.100;2023-04-02T01:42:27;97318.19;;;6.61;100.00
33781;BME280;20097;50.832;19.100;2023-04-02T01:47:36;97314.31;;;6.57;100.00
33781;BME280;20097;50.832;19.100;2023-04-02T01:52:42;97322.25;;;6.56;100.00
33781;BME280;20097;50.832;19.100;2023-04-02T01:57:49;97318.91;;;6.47;100.00
33781;BME280;20097;50.832;19.100;2023-04-02T02:02:55;97331.28;;;6.37;100.00
33781;BME280;20097;50.832;19.100;2023-04-02T02:08:00;97334.28;;;6.18;100.00
33781;BME280;20097;50.832;19.100;2023-04-02T02:13:04;97337.25;;;6.07;100.00
33781;BME280;20097;50.832;19.100;2023-04-02T02:18:10;97338.72;;;6.02;100.00
33781;BME280;20097;50.832;19.100;2023-04-02T02:23:15;97352.50;;;6.02;100.00
33781;BME280;20097;50.832;19.100;2023-04-02T02:28:20;97353.47;;;6.01;100.00
33781;BME280;20097;50.832;19.100;2023-04-02T02:33:29;97360.66;;;5.83;100.00
33781;BME280;20097;50.832;19.100;2023-04-02T02:38:41;97365.16;;;5.81;100.00
33781;BME280;20097;50.832;19.100;2023-04-02T02:43:59;97373.44;;;5.77;100.00
33781;BME280;20097;50.832;19.100;2023-04-02T02:49:06;97370.84;;;5.77;100.00
33781;BME280;20097;50.832;19.100;2023-04-02T02:54:13;97380.72;;;5.73;100.00
33781;BME280;20097;50.832;19.100;2023-04-02T02:59:18;97383.97;;;5.75;100.00
33781;BME280;20097;50.832;19.100;2023-04-02T03:04:26;97388.66;;;5.72;100.00
33781;BME280;20097;50.832;19.100;2023-04-02T03:09:37;97393.53;;;5.58;100.00
33781;BME280;20097;50.832;19.100;2023-04-02T03:14:46;97395.00;;;5.37;100.00
33781;BME280;20097;50.832;19.100;2023-04-02T03:20:00;97394.66;;;5.40;100.00
33781;BME280;20097;50.832;19.100;2023-04-02T03:25:20;97400.66;;;5.32;100.00
33781;BME280;20097;50.832;19.100;2023-04-02T03:30:35;97405.69;;;5.26;100.00
33781;BME280;20097;50.832;19.100;2023-04-02T03:35:45;97416.03;;;5.18;100.00
33781;BME280;20097;50.832;19.100;2023-04-02T03:40:59;97423.47;;;5.13;100.00
33781;BME280;20097;50.832;19.100;2023-04-02T03:46:13;97421.53;;;5.07;100.00
33781;BME280;20097;50.832;19.100;2023-04-02T03:51:25;97432.66;;;4.99;100.00
33781;BME280;20097;50.832;19.100;2023-04-02T03:56:31;97438.97;;;4.97;100.00
33781;BME280;20097;50.832;19.100;2023-04-02T04:01:48;97449.78;;;4.92;100.00
33781;BME280;20097;50.832;19.100;2023-04-02T04:06:58;97452.53;;;4.91;100.00
33781;BME280;20097;50.832;19.100;2023-04-02T04:12:11;97463.19;;;4.88;100.00
33781;BME280;20097;50.832;19.100;2023-04-02T04:17:19;97473.22;;;4.83;100.00
33781;BME280;20097;50.832;19.100;2023-04-02T04:22:36;97485.47;;;4.81;100.00
33781;BME280;20097;50.832;19.100;2023-04-02T04:28:00;97496.13;;;4.78;100.00
33781;BME280;20097;50.832;19.100;2023-04-02T04:33:12;97506.59;;;4.68;100.00
33781;BME280;20097;50.832;19.100;2023-04-02T04:38:25;97515.47;;;4.66;100.00
33781;BME280;20097;50.832;19.100;2023-04-02T04:43:39;97529.97;;;4.59;100.00
33781;BME280;20097;50.832;19.100;2023-04-02T04:48:49;97530.19;;;4.40;100.00
33781;BME280;20097;50.832;19.100;2023-04-02T04:53:59;97531.84;;;4.41;100.00
33781;BME280;20097;50.832;19.100;2023-04-02T04:59:13;97545.44;;;4.25;100.00
33781;BME280;20097;50.832;19.100;2023-04-02T05:04:21;97548.38;;;4.30;100.00
33781;BME280;20097;50.832;19.100;2023-04-02T05:09:31;97554.13;;;4.16;100.00
33781;BME280;20097;50.832;19.100;2023-04-02T05:14:39;97562.72;;;3.99;100.00
33781;BME280;20097;50.832;19.100;2023-04-02T05:19:48;97576.53;;;3.90;100.00
33781;BME280;20097;50.832;19.100;2023-04-02T05:25:07;97572.09;;;3.82;100.00
33781;BME280;20097;50.832;19.100;2023-04-02T05:30:33;97586.41;;;3.77;100.00
33781;BME280;20097;50.832;19.100;2023-04-02T05:35:42;97584.84;;;3.66;100.00
33781;BME280;20097;50.832;19.100;2023-04-02T05:40:53;97594.97;;;3.60;100.00
33781;BME280;20097;50.832;19.100;2023-04-02T05:46:04;97607.72;;;3.61;100.00
33781;BME280;20097;50.832;19.100;2023-04-02T05:51:14;97621.66;;;3.68;100.00
33781;BME280;20097;50.832;19.100;2023-04-02T05:56:22;97632.41;;;3.46;100.00
33781;BME280;20097;50.832;19.100;2023-04-02T06:01:31;97635.75;;;3.29;100.00
33781;BME280;20097;50.832;19.100;2023-04-02T06:06:46;97637.34;;;3.13;100.00
33781;BME280;20097;50.832;19.100;2023-04-02T06:11:59;97644.06;;;2.96;100.00
33781;BME280;20097;50.832;19.100;2023-04-02T06:17:08;97657.41;;;2.82;100.00
33781;BME280;20097;50.832;19.100;2023-04-02T06:22:22;97679.28;;;2.68;100.00
33781;BME280;20097;50.832;19.100;2023-04-02T06:27:33;97679.88;;;2.53;100.00
33781;BME280;20097;50.832;19.100;2023-04-02T06:32:41;97684.75;;;2.46;100.00
33781;BME280;20097;50.832;19.100;2023-04-02T06:37:48;97680.97;;;2.31;100.00
33781;BME280;20097;50.832;19.100;2023-04-02T06:43:01;97688.81;;;2.39;100.00
33781;BME280;20097;50.832;19.100;2023-04-02T06:48:32;97691.53;;;2.57;100.00
33781;BME280;20097;50.832;19.100;2023-04-02T06:53:38;97710.91;;;2.61;100.00
33781;BME280;20097;50.832;19.100;2023-04-02T06:58:49;97721.88;;;2.63;100.00
33781;BME280;20097;50.832;19.100;2023-04-02T07:03:55;97727.84;;;2.44;100.00
33781;BME280;20097;50.832;19.100;2023-04-02T07:09:05;97727.06;;;2.53;100.00
33781;BME280;20097;50.832;19.100;2023-04-02T07:14:15;97735.44;;;2.65;100.00
33781;BME280;20097;50.832;19.100;2023-04-02T07:19:21;97743.00;;;2.86;100.00
33781;BME280;20097;50.832;19.100;2023-04-02T07:24:31;97744.00;;;3.12;100.00
33781;BME280;20097;50.832;19.100;2023-04-02T07:29:37;97755.34;;;3.28;100.00
33781;BME280;20097;50.832;19.100;2023-04-02T07:34:44;97757.88;;;3.38;100.00
33781;BME280;20097;50.832;19.100;2023-04-02T07:39:49;97774.78;;;3.59;100.00
33781;BME280;20097;50.832;19.100;2023-04-02T07:44:55;97790.50;;;3.56;100.00
33781;BME280;20097;50.832;19.100;2023-04-02T07:49:59;97789.47;;;3.49;100.00
33781;BME280;20097;50.832;19.100;2023-04-02T07:55:04;97802.91;;;3.53;100.00
33781;BME280;20097;50.832;19.100;2023-04-02T08:00:13;97809.16;;;3.50;100.00
33781;BME280;20097;50.832;19.100;2023-04-02T08:05:18;97819.38;;;3.42;100.00
33781;BME280;20097;50.832;19.100;2023-04-02T08:10:22;97820.84;;;3.54;100.00
33781;BME280;20097;50.832;19.100;2023-04-02T08:15:27;97833.72;;;3.54;100.00
33781;BME280;20097;50.832;19.100;2023-04-02T08:20:32;97833.53;;;3.65;100.00
33781;BME280;20097;50.832;19.100;2023-04-02T08:25:36;97843.88;;;3.65;100.00
33781;BME280;20097;50.832;19.100;2023-04-02T08:30:41;97857.78;;;3.45;100.00
33781;BME280;20097;50.832;19.100;2023-04-02T08:35:46;97860.47;;;3.53;100.00
33781;BME280;20097;50.832;19.100;2023-04-02T08:40:53;97860.31;;;3.55;100.00
33781;BME280;20097;50.832;19.100;2023-04-02T08:46:05;97869.00;;;3.63;100.00
33781;BME280;20097;50.832;19.100;2023-04-02T08:51:20;97874.88;;;3.56;100.00
33781;BME280;20097;50.832;19.100;2023-04-02T08:56:28;97880.69;;;3.67;100.00
33781;BME280;20097;50.832;19.100;2023-04-02T09:01:39;97888.13;;;3.70;100.00
33781;BME280;20097;50.832;19.100;2023-04-02T09:06:50;97889.88;;;3.70;100.00
33781;BME280;20097;50.832;19.100;2023-04-02T09:11:56;97901.59;;;3.55;100.00
33781;BME280;20097;50.832;19.100;2023-04-02T09:17:04;97910.53;;;3.70;100.00
33781;BME280;20097;50.832;19.100;2023-04-02T09:22:17;97921.22;;;3.84;100.00
33781;BME280;20097;50.832;19.100;2023-04-02T09:27:24;97925.81;;;4.00;100.00
33781;BME280;20097;50.832;19.100;2023-04-02T09:32:39;97932.75;;;4.27;100.00
33781;BME280;20097;50.832;19.100;2023-04-02T09:38:06;97939.91;;;4.33;100.00
33781;BME280;20097;50.832;19.100;2023-04-02T09:43:14;97954.91;;;4.29;100.00
33781;BME280;20097;50.832;19.100;2023-04-02T09:48:23;97959.81;;;4.22;100.00
33781;BME280;20097;50.832;19.100;2023-04-02T09:53:30;97970.75;;;4.07;100.00
33781;BME280;20097;50.832;19.100;2023-04-02T09:58:36;97976.66;;;4.27;100.00
33781;BME280;20097;50.832;19.100;2023-04-02T10:03:41;97975.63;;;4.10;100.00
33781;BME280;20097;50.832;19.100;2023-04-02T10:08:45;97979.88;;;4.38;100.00
33781;BME280;20097;50.832;19.100;2023-04-02T10:13:51;97973.91;;;4.65;100.00
33781;BME280;20097;50.832;19.100;2023-04-02T10:19:00;97987.34;;;4.68;100.00
33781;BME280;20097;50.832;19.100;2023-04-02T10:24:09;98002.94;;;4.49;100.00
33781;BME280;20097;50.832;19.100;2023-04-02T10:29:20;97998.47;;;4.14;100.00
33781;BME280;20097;50.832;19.100;2023-04-02T10:34:33;98014.19;;;4.31;100.00
33781;BME280;20097;50.832;19.100;2023-04-02T10:39:42;98012.50;;;4.39;100.00
33781;BME280;20097;50.832;19.100;2023-04-02T10:44:51;98017.06;;;4.28;100.00
33781;BME280;20097;50.832;19.100;2023-04-02T10:50:05;98028.66;;;4.04;100.00
33781;BME280;20097;50.832;19.100;2023-04-02T10:55:13;98023.38;;;3.96;100.00
33781;BME280;20097;50.832;19.100;2023-04-02T11:00:21;98039.28;;;4.01;100.00
33781;BME280;20097;50.832;19.100;2023-04-02T11:05:31;98042.09;;;4.17;100.00
33781;BME280;20097;50.832;19.100;2023-04-02T11:10:42;98051.75;;;4.15;100.00
33781;BME280;20097;50.832;19.100;2023-04-02T11:15:47;98046.53;;;4.25;100.00
33781;BME280;20097;50.832;19.100;2023-04-02T11:20:58;98056.34;;;4.21;100.00
33781;BME280;20097;50.832;19.100;2023-04-02T11:26:35;98063.16;;;4.22;100.00
33781;BME280;20097;50.832;19.100;2023-04-02T11:31:40;98078.94;;;4.00;100.00
33781;BME280;20097;50.832;19.100;2023-04-02T11:37:01;98088.19;;;4.12;100.00
33781;BME280;20097;50.832;19.100;2023-04-02T11:42:24;98096.19;;;4.19;100.00
33781;BME280;20097;50.832;19.100;2023-04-02T11:47:28;98092.47;;;4.41;100.00
33781;BME280;20097;50.832;19.100;2023-04-02T11:52:37;98098.22;;;4.25;100.00
33781;BME280;20097;50.832;19.100;2023-04-02T12:03:42;98120.81;;;3.94;100.00
33781;BME280;20097;50.832;19.100;2023-04-02T12:08:55;98125.56;;;3.89;100.00
33781;BME280;20097;50.832;19.100;2023-04-02T12:14:02;98129.75;;;3.90;100.00
33781;BME280;20097;50.832;19.100;2023-04-02T12:19:12;98137.81;;;4.06;100.00
33781;BME280;20097;50.832;19.100;2023-04-02T12:24:21;98135.75;;;3.91;100.00
33781;BME280;20097;50.832;19.100;2023-04-02T12:29:27;98136.03;;;3.88;100.00
33781;BME280;20097;50.832;19.100;2023-04-02T12:34:32;98145.94;;;3.83;100.00
33781;BME280;20097;50.832;19.100;2023-04-02T12:39:38;98150.19;;;3.93;100.00
33781;BME280;20097;50.832;19.100;2023-04-02T12:44:47;98152.47;;;3.96;100.00
33781;BME280;20097;50.832;19.100;2023-04-02T12:49:52;98157.22;;;4.10;100.00
33781;BME280;20097;50.832;19.100;2023-04-02T12:55:00;98161.56;;;4.00;100.00
33781;BME280;20097;50.832;19.100;2023-04-02T13:00:28;98177.75;;;4.21;100.00
33781;BME280;20097;50.832;19.100;2023-04-02T13:05:35;98176.66;;;3.95;100.00
33781;BME280;20097;50.832;19.100;2023-04-02T13:10:42;98176.28;;;4.00;100.00
33781;BME280;20097;50.832;19.100;2023-04-02T13:16:03;98190.94;;;3.90;100.00
33781;BME280;20097;50.832;19.100;2023-04-02T13:21:23;98191.59;;;3.92;100.00
33781;BME280;20097;50.832;19.100;2023-04-02T13:26:31;98196.78;;;4.01;100.00
33781;BME280;20097;50.832;19.100;2023-04-02T13:31:37;98207.81;;;4.13;100.00
33781;BME280;20097;50.832;19.100;2023-04-02T13:37:07;98217.31;;;4.12;100.00
33781;BME280;20097;50.832;19.100;2023-04-02T13:42:13;98222.34;;;4.14;100.00
33781;BME280;20097;50.832;19.100;2023-04-02T13:47:17;98218.41;;;4.19;100.00
33781;BME280;20097;50.832;19.100;2023-04-02T13:52:21;98233.22;;;4.27;100.00
33781;BME280;20097;50.832;19.100;2023-04-02T13:57:27;98239.22;;;4.47;100.00
33781;BME280;20097;50.832;19.100;2023-04-02T14:02:31;98237.84;;;4.43;100.00
33781;BME280;20097;50.832;19.100;2023-04-02T14:07:45;98242.19;;;4.33;100.00
33781;BME280;20097;50.832;19.100;2023-04-02T14:13:06;98242.47;;;4.49;100.00
33781;BME280;20097;50.832;19.100;2023-04-02T14:18:24;98243.16;;;4.22;100.00
33781;BME280;20097;50.832;19.100;2023-04-02T14:23:37;98260.13;;;4.24;100.00
33781;BME280;20097;50.832;19.100;2023-04-02T14:28:49;98253.47;;;4.03;100.00
33781;BME280;20097;50.832;19.100;2023-04-02T14:34:02;98263.25;;;4.38;100.00
33781;BME280;20097;50.832;19.100;2023-04-02T14:39:12;98271.00;;;4.28;100.00
33781;BME280;20097;50.832;19.100;2023-04-02T14:44:22;98264.06;;;4.00;100.00
33781;BME280;20097;50.832;19.100;2023-04-02T14:49:29;98273.41;;;3.91;100.00
33781;BME280;20097;50.832;19.100;2023-04-02T14:54:39;98277.72;;;3.81;100.00
33781;BME280;20097;50.832;19.100;2023-04-02T14:59:57;98281.34;;;3.69;100.00
33781;BME280;20097;50.832;19.100;2023-04-02T15:05:09;98294.78;;;3.63;100.00
33781;BME280;20097;50.832;19.100;2023-04-02T15:10:21;98304.56;;;3.60;100.00
33781;BME280;20097;50.832;19.100;2023-04-02T15:15:39;98307.44;;;3.36;100.00
33781;BME280;20097;50.832;19.100;2023-04-02T15:20:49;98309.50;;;3.42;100.00
33781;BME280;20097;50.832;19.100;2023-04-02T15:26:03;98318.50;;;3.48;100.00
33781;BME280;20097;50.832;19.100;2023-04-02T15:31:13;98321.56;;;3.42;100.00
33781;BME280;20097;50.832;19.100;2023-04-02T15:42:00;98336.44;;;3.29;100.00
33781;BME280;20097;50.832;19.100;2023-04-02T15:47:10;98345.88;;;3.39;100.00
33781;BME280;20097;50.832;19.100;2023-04-02T15:52:20;98351.47;;;3.24;100.00
33781;BME280;20097;50.832;19.100;2023-04-02T15:57:39;98352.03;;;3.27;100.00
33781;BME280;20097;50.832;19.100;2023-04-02T16:03:10;98351.59;;;3.22;100.00
33781;BME280;20097;50.832;19.100;2023-04-02T16:08:36;98366.59;;;3.28;100.00
33781;BME280;20097;50.832;19.100;2023-04-02T16:13:43;98361.25;;;3.20;100.00
33781;BME280;20097;50.832;19.100;2023-04-02T16:18:54;98382.75;;;3.10;100.00
33781;BME280;20097;50.832;19.100;2023-04-02T16:24:04;98377.97;;;3.05;100.00
33781;BME280;20097;50.832;19.100;2023-04-02T16:29:20;98390.03;;;3.05;100.00
33781;BME280;20097;50.832;19.100;2023-04-02T16:34:34;98394.69;;;3.11;100.00
33781;BME280;20097;50.832;19.100;2023-04-02T16:39:42;98396.94;;;3.04;100.00
33781;BME280;20097;50.832;19.100;2023-04-02T16:44:55;98400.97;;;2.97;100.00
33781;BME280;20097;50.832;19.100;2023-04-02T16:50:10;98404.06;;;2.91;100.00
33781;BME280;20097;50.832;19.100;2023-04-02T16:55:25;98407.19;;;2.95;100.00
33781;BME280;20097;50.832;19.100;2023-04-02T17:00:36;98418.56;;;2.92;100.00
33781;BME280;20097;50.832;19.100;2023-04-02T17:05:51;98432.50;;;2.90;100.00
33781;BME280;20097;50.832;19.100;2023-04-02T17:10:58;98434.28;;;2.89;100.00
33781;BME280;20097;50.832;19.100;2023-04-02T17:16:08;98441.31;;;2.87;100.00
33781;BME280;20097;50.832;19.100;2023-04-02T17:21:19;98449.75;;;2.89;100.00
33781;BME280;20097;50.832;19.100;2023-04-02T17:26:25;98449.25;;;2.95;100.00
33781;BME280;20097;50.832;19.100;2023-04-02T17:31:31;98457.00;;;2.95;100.00
33781;BME280;20097;50.832;19.100;2023-04-02T17:36:42;98468.50;;;2.80;100.00
33781;BME280;20097;50.832;19.100;2023-04-02T17:41:48;98468.16;;;2.85;100.00
33781;BME280;20097;50.832;19.100;2023-04-02T17:46:57;98476.00;;;2.83;100.00
33781;BME280;20097;50.832;19.100;2023-04-02T17:52:06;98494.88;;;2.83;100.00
33781;BME280;20097;50.832;19.100;2023-04-02T17:57:26;98498.97;;;2.75;100.00
33781;BME280;20097;50.832;19.100;2023-04-02T18:02:46;98503.44;;;2.62;100.00
33781;BME280;20097;50.832;19.100;2023-04-02T18:08:04;98506.97;;;2.61;100.00
33781;BME280;20097;50.832;19.100;2023-04-02T18:13:22;98511.19;;;2.62;100.00
33781;BME280;20097;50.832;19.100;2023-04-02T18:18:44;98511.06;;;2.63;100.00
33781;BME280;20097;50.832;19.100;2023-04-02T18:24:09;98523.28;;;2.50;100.00
33781;BME280;20097;50.832;19.100;2023-04-02T18:29:22;98537.19;;;2.48;100.00
33781;BME280;20097;50.832;19.100;2023-04-02T18:34:47;98538.59;;;2.41;100.00
33781;BME280;20097;50.832;19.100;2023-04-02T18:40:03;98537.31;;;2.35;100.00
33781;BME280;20097;50.832;19.100;2023-04-02T18:45:13;98553.47;;;2.37;100.00
33781;BME280;20097;50.832;19.100;2023-04-02T18:50:23;98550.91;;;2.37;100.00
33781;BME280;20097;50.832;19.100;2023-04-02T18:55:29;98561.44;;;2.45;100.00
33781;BME280;20097;50.832;19.100;2023-04-02T19:00:35;98564.34;;;2.41;100.00
33781;BME280;20097;50.832;19.100;2023-04-02T19:05:46;98564.00;;;2.34;100.00
33781;BME280;20097;50.832;19.100;2023-04-02T19:10:56;98578.53;;;2.35;100.00
33781;BME280;20097;50.832;19.100;2023-04-02T19:16:31;98581.91;;;2.36;100.00
33781;BME280;20097;50.832;19.100;2023-04-02T19:21:54;98589.06;;;2.32;100.00
33781;BME280;20097;50.832;19.100;2023-04-02T19:27:06;98594.31;;;2.31;100.00
33781;BME280;20097;50.832;19.100;2023-04-02T19:32:13;98599.72;;;2.39;100.00
33781;BME280;20097;50.832;19.100;2023-04-02T19:37:26;98607.09;;;2.32;100.00
33781;BME280;20097;50.832;19.100;2023-04-02T19:42:41;98614.69;;;2.34;100.00
33781;BME280;20097;50.832;19.100;2023-04-02T19:47:47;98613.63;;;2.36;100.00
33781;BME280;20097;50.832;19.100;2023-04-02T19:52:51;98616.06;;;2.16;100.00
33781;BME280;20097;50.832;19.100;2023-04-02T19:57:57;98617.88;;;1.92;100.00
33781;BME280;20097;50.832;19.100;2023-04-02T20:03:19;98632.00;;;1.86;100.00
33781;BME280;20097;50.832;19.100;2023-04-02T20:08:23;98634.91;;;1.58;100.00
33781;BME280;20097;50.832;19.100;2023-04-02T20:13:29;98638.88;;;1.51;100.00
33781;BME280;20097;50.832;19.100;2023-04-02T20:18:33;98644.91;;;1.50;100.00
33781;BME280;20097;50.832;19.100;2023-04-02T20:23:39;98649.44;;;1.47;100.00
33781;BME280;20097;50.832;19.100;2023-04-02T20:28:45;98649.44;;;1.47;100.00
33781;BME280;20097;50.832;19.100;2023-04-02T20:33:52;98655.97;;;1.39;100.00
33781;BME280;20097;50.832;19.100;2023-04-02T20:38:57;98666.81;;;1.19;100.00
33781;BME280;20097;50.832;19.100;2023-04-02T20:44:03;98668.88;;;1.14;100.00
33781;BME280;20097;50.832;19.100;2023-04-02T20:49:07;98667.47;;;1.10;100.00
33781;BME280;20097;50.832;19.100;2023-04-02T20:54:11;98673.00;;;1.04;100.00
33781;BME280;20097;50.832;19.100;2023-04-02T20:59:20;98673.34;;;1.00;100.00
33781;BME280;20097;50.832;19.100;2023-04-02T21:04:26;98680.44;;;0.96;100.00
33781;BME280;20097;50.832;19.100;2023-04-02T21:09:31;98685.97;;;1.03;100.00
33781;BME280;20097;50.832;19.100;2023-04-02T21:14:37;98688.03;;;0.98;100.00
33781;BME280;20097;50.832;19.100;2023-04-02T21:19:42;98684.34;;;1.02;100.00
33781;BME280;20097;50.832;19.100;2023-04-02T21:24:46;98692.88;;;1.02;100.00
33781;BME280;20097;50.832;19.100;2023-04-02T21:29:52;98687.22;;;0.97;100.00
33781;BME280;20097;50.832;19.100;2023-04-02T21:34:56;98685.34;;;0.99;100.00
33781;BME280;20097;50.832;19.100;2023-04-02T21:40:00;98689.25;;;1.05;100.00
33781;BME280;20097;50.832;19.100;2023-04-02T21:45:07;98706.03;;;1.10;100.00
33781;BME280;20097;50.832;19.100;2023-04-02T21:50:12;98697.38;;;1.11;100.00
33781;BME280;20097;50.832;19.100;2023-04-02T21:55:16;98709.81;;;1.17;100.00
33781;BME280;20097;50.832;19.100;2023-04-02T22:00:22;98711.69;;;1.15;100.00
33781;BME280;20097;50.832;19.100;2023-04-02T22:05:28;98719.88;;;1.20;100.00
33781;BME280;20097;50.832;19.100;2023-04-02T22:10:34;98717.69;;;1.27;100.00
33781;BME280;20097;50.832;19.100;2023-04-02T22:15:40;98729.84;;;1.25;100.00
33781;BME280;20097;50.832;19.100;2023-04-02T22:20:44;98736.97;;;1.21;100.00
33781;BME280;20097;50.832;19.100;2023-04-02T22:25:48;98741.47;;;1.30;100.00
33781;BME280;20097;50.832;19.100;2023-04-02T22:30:54;98750.09;;;1.29;100.00
33781;BME280;20097;50.832;19.100;2023-04-02T22:35:59;98740.03;;;1.26;100.00
33781;BME280;20097;50.832;19.100;2023-04-02T22:41:05;98743.34;;;1.28;100.00
33781;BME280;20097;50.832;19.100;2023-04-02T22:46:13;98760.06;;;1.34;100.00
33781;BME280;20097;50.832;19.100;2023-04-02T22:51:19;98745.25;;;1.37;100.00
33781;BME280;20097;50.832;19.100;2023-04-02T22:56:26;98743.53;;;1.38;100.00
33781;BME280;20097;50.832;19.100;2023-04-02T23:01:35;98755.03;;;1.32;100.00
33781;BME280;20097;50.832;19.100;2023-04-02T23:06:39;98750.50;;;1.36;100.00
33781;BME280;20097;50.832;19.100;2023-04-02T23:11:43;98755.88;;;1.33;100.00
33781;BME280;20097;50.832;19.100;2023-04-02T23:16:49;98753.63;;;1.28;100.00
33781;BME280;20097;50.832;19.100;2023-04-02T23:21:53;98753.00;;;1.25;100.00
33781;BME280;20097;50.832;19.100;2023-04-02T23:26:59;98760.78;;;1.36;100.00
33781;BME280;20097;50.832;19.100;2023-04-02T23:32:05;98762.03;;;1.30;100.00
33781;BME280;20097;50.832;19.100;2023-04-02T23:37:09;98766.38;;;1.30;100.00
33781;BME280;20097;50.832;19.100;2023-04-02T23:42:13;98766.78;;;1.36;100.00
33781;BME280;20097;50.832;19.100;2023-04-02T23:47:20;98756.50;;;1.36;100.00
33781;BME280;20097;50.832;19.100;2023-04-02T23:52:24;98764.19;;;1.36;100.00
33781;BME280;20097;50.832;19.100;2023-04-02T23:57:28;98767.16;;;1.30;100.00
